createdAt,value
2023-10-06T00:00:55.592Z,11.69
2023-10-06T00:06:40.514Z,11.72
2023-10-06T00:12:06.318Z,11.75
2023-10-06T00:17:40.617Z,11.77
2023-10-06T00:23:06.419Z,11.77
2023-10-06T00:28:38.450Z,11.77
2023-10-06T00:34:04.198Z,11.78
2023-10-06T00:39:29.851Z,11.80
2023-10-06T00:44:55.495Z,11.83
2023-10-06T00:50:22.178Z,11.85
2023-10-06T00:55:48.034Z,11.87
2023-10-06T01:01:13.846Z,11.87
2023-10-06T01:06:39.895Z,11.88
2023-10-06T01:12:07.090Z,11.89
2023-10-06T01:17:32.759Z,11.90
2023-10-06T01:22:57.422Z,11.93
2023-10-06T01:28:26.176Z,11.96
2023-10-06T01:33:31.567Z,11.98
2023-10-06T01:38:37.902Z,12.00
2023-10-06T01:43:43.338Z,12.02
2023-10-06T01:48:48.747Z,12.04
2023-10-06T01:53:53.987Z,12.07
2023-10-06T01:59:00.208Z,12.10
2023-10-06T02:04:09.497Z,12.12
2023-10-06T02:09:19.269Z,12.14
2023-10-06T02:14:24.575Z,12.17
2023-10-06T02:19:30.029Z,12.20
2023-10-06T02:24:35.599Z,12.24
2023-10-06T02:29:43.557Z,12.27
2023-10-06T02:34:49.965Z,12.31
2023-10-06T02:39:55.421Z,12.32
2023-10-06T02:45:01.194Z,12.34
2023-10-06T02:50:08.628Z,12.36
2023-10-06T02:55:14.717Z,12.37
2023-10-06T03:00:26.172Z,12.39
2023-10-06T03:05:33.491Z,12.42
2023-10-06T03:10:44.956Z,12.44
2023-10-06T03:15:49.163Z,12.45
2023-10-06T03:21:01.019Z,12.47
2023-10-06T03:26:14.346Z,12.50
2023-10-06T03:31:19.621Z,12.52
2023-10-06T03:36:38.114Z,12.56
2023-10-06T03:41:47.964Z,12.59
2023-10-06T03:46:53.549Z,12.61
2023-10-06T03:51:58.893Z,12.63
2023-10-06T03:57:05.592Z,12.64
2023-10-06T04:02:10.941Z,12.67
2023-10-06T04:07:17.221Z,12.68
2023-10-06T04:12:22.527Z,12.69
2023-10-06T04:17:27.804Z,12.70
2023-10-06T04:22:37.417Z,12.73
2023-10-06T04:27:43.161Z,12.73
2023-10-06T04:32:49.097Z,12.73
2023-10-06T04:37:55.147Z,12.69
2023-10-06T04:43:00.851Z,12.66
2023-10-06T04:48:09.370Z,12.62
2023-10-06T04:53:17.989Z,12.58
2023-10-06T04:58:24.307Z,12.52
2023-10-06T05:03:45.160Z,12.47
2023-10-06T05:08:51.300Z,12.44
2023-10-06T05:13:56.833Z,12.44
2023-10-06T05:19:04.553Z,12.42
2023-10-06T05:24:10.978Z,12.41
2023-10-06T05:29:16.388Z,12.43
2023-10-06T05:34:22.249Z,12.45
2023-10-06T05:39:29.896Z,12.45
2023-10-06T05:44:37.208Z,12.46
2023-10-06T05:49:49.013Z,12.45
2023-10-06T05:54:58.508Z,12.45
2023-10-06T06:00:04.566Z,12.45
2023-10-06T06:05:10.713Z,12.46
2023-10-06T06:10:16.387Z,12.47
2023-10-06T06:15:22.827Z,12.50
2023-10-06T06:20:28.513Z,12.54
2023-10-06T06:25:36.921Z,12.63
2023-10-06T06:30:42.544Z,12.77
2023-10-06T06:35:47.825Z,12.89
2023-10-06T06:40:54.926Z,12.99
2023-10-06T06:46:00.431Z,13.04
2023-10-06T06:51:05.823Z,13.04
2023-10-06T06:56:12.272Z,13.09
2023-10-06T07:01:17.807Z,13.16
2023-10-06T07:06:23.181Z,13.25
2023-10-06T07:11:28.520Z,13.32
2023-10-06T07:16:35.317Z,13.37
2023-10-06T07:21:40.774Z,13.45
2023-10-06T07:26:46.381Z,13.57
2023-10-06T07:31:51.784Z,13.67
2023-10-06T07:36:57.327Z,13.74
2023-10-06T07:42:07.752Z,13.78
2023-10-06T07:47:13.595Z,13.81
2023-10-06T07:52:18.948Z,13.84
2023-10-06T07:57:24.263Z,13.93
2023-10-06T08:02:30.537Z,14.02
2023-10-06T08:07:35.861Z,14.16
2023-10-06T08:12:41.170Z,14.26
2023-10-06T08:17:47.879Z,14.31
2023-10-06T08:22:54.207Z,14.35
2023-10-06T08:28:00.125Z,14.36
2023-10-06T08:33:10.493Z,14.48
2023-10-06T08:38:18.434Z,14.66
2023-10-06T08:43:27.596Z,14.77
2023-10-06T08:48:39.720Z,14.93
2023-10-06T08:53:50.693Z,15.16
2023-10-06T08:58:56.261Z,15.26
2023-10-06T09:04:07.572Z,15.30
2023-10-06T09:09:27.243Z,15.32
2023-10-06T09:14:32.885Z,15.34
2023-10-06T09:19:50.593Z,15.35
2023-10-06T09:25:05.965Z,15.42
2023-10-06T09:30:12.820Z,15.48
2023-10-06T09:35:22.891Z,15.59
2023-10-06T09:40:33.248Z,15.70
2023-10-06T09:45:41.540Z,15.81
2023-10-06T09:50:47.980Z,15.84
2023-10-06T09:55:53.931Z,15.82
2023-10-06T10:01:00.302Z,15.81
2023-10-06T10:06:06.293Z,15.94
2023-10-06T10:11:15.726Z,16.08
2023-10-06T10:16:47.397Z,16.20
2023-10-06T10:21:51.790Z,16.23
2023-10-06T10:26:57.185Z,16.24
2023-10-06T10:32:12.138Z,16.26
2023-10-06T10:37:18.516Z,16.23
2023-10-06T10:42:37.687Z,16.26
2023-10-06T10:47:43.370Z,16.29
2023-10-06T10:52:53.689Z,16.28
2023-10-06T10:57:59.619Z,16.25
2023-10-06T11:03:05.887Z,16.30
2023-10-06T11:08:12.272Z,16.41
2023-10-06T11:13:20.549Z,16.47
2023-10-06T11:18:32.747Z,16.57
2023-10-06T11:23:45.053Z,16.72
2023-10-06T11:28:51.388Z,16.91
2023-10-06T11:34:00.090Z,16.99
2023-10-06T11:39:06.277Z,17.07
2023-10-06T11:44:12.167Z,17.22
2023-10-06T11:49:20.458Z,17.41
2023-10-06T11:54:26.933Z,17.38
2023-10-06T11:59:34.978Z,17.37
2023-10-06T12:04:40.547Z,17.40
2023-10-06T12:09:47.889Z,17.41
2023-10-06T12:14:56.940Z,17.46
2023-10-06T12:20:04.840Z,17.47
2023-10-06T12:25:16.116Z,17.47
2023-10-06T12:30:23.082Z,17.42
2023-10-06T12:35:30.590Z,17.35
2023-10-06T12:40:39.227Z,17.29
2023-10-06T12:45:44.898Z,17.20
2023-10-06T12:50:50.456Z,17.17
2023-10-06T12:55:58.764Z,17.17
2023-10-06T13:01:08.646Z,17.14
2023-10-06T13:06:15.079Z,17.16
2023-10-06T13:11:20.481Z,17.11
2023-10-06T13:16:26.000Z,17.04
2023-10-06T13:21:31.498Z,16.99
2023-10-06T13:26:44.180Z,16.92
2023-10-06T13:31:50.652Z,16.87
2023-10-06T13:36:56.088Z,16.58
2023-10-06T13:42:04.339Z,16.20
2023-10-06T13:47:10.944Z,15.82
2023-10-06T13:52:17.634Z,15.68
2023-10-06T13:57:23.010Z,15.63
2023-10-06T14:02:28.684Z,15.57
2023-10-06T14:07:34.680Z,15.47
2023-10-06T14:12:41.842Z,15.36
2023-10-06T14:17:48.508Z,15.30
2023-10-06T14:22:56.569Z,15.25
2023-10-06T14:28:02.115Z,15.26
2023-10-06T14:33:14.993Z,15.20
2023-10-06T14:38:33.487Z,15.18
2023-10-06T14:43:58.079Z,15.12
2023-10-06T14:49:04.600Z,15.06
2023-10-06T14:54:12.223Z,15.00
2023-10-06T14:59:19.963Z,15.00
2023-10-06T15:04:25.825Z,15.01
2023-10-06T15:09:35.386Z,14.98
2023-10-06T15:14:41.982Z,14.94
2023-10-06T15:19:47.892Z,14.92
2023-10-06T15:24:53.454Z,14.94
2023-10-06T15:30:00.052Z,14.94
2023-10-06T15:35:07.140Z,14.91
2023-10-06T15:40:17.575Z,14.92
2023-10-06T15:45:23.659Z,14.91
2023-10-06T15:50:29.781Z,14.91
2023-10-06T15:55:36.802Z,14.93
2023-10-06T16:00:42.873Z,14.92
2023-10-06T16:05:48.850Z,14.91
2023-10-06T16:10:59.166Z,14.93
2023-10-06T16:16:12.046Z,14.96
2023-10-06T16:21:18.793Z,14.93
2023-10-06T16:26:24.560Z,14.95
2023-10-06T16:31:30.793Z,14.96
2023-10-06T16:36:38.303Z,14.96
2023-10-06T16:41:44.924Z,14.96
2023-10-06T16:46:50.644Z,14.95
2023-10-06T16:51:56.102Z,14.98
2023-10-06T16:57:02.255Z,14.98
2023-10-06T17:02:08.136Z,15.00
2023-10-06T17:07:13.594Z,15.02
2023-10-06T17:12:18.963Z,15.03
2023-10-06T17:17:26.332Z,15.06
2023-10-06T17:22:31.920Z,15.09
2023-10-06T17:27:37.245Z,15.14
2023-10-06T17:32:42.692Z,15.20
2023-10-06T17:37:48.604Z,15.23
2023-10-06T17:42:56.581Z,15.27
2023-10-06T17:48:02.078Z,15.30
2023-10-06T17:53:07.421Z,15.33
2023-10-06T17:58:12.823Z,15.37
2023-10-06T18:03:18.751Z,15.41
2023-10-06T18:08:24.337Z,15.43
2023-10-06T18:13:29.821Z,15.46
2023-10-06T18:18:37.989Z,15.49
2023-10-06T18:23:43.475Z,15.52
2023-10-06T18:28:49.105Z,15.52
2023-10-06T18:33:54.465Z,15.50
2023-10-06T18:38:59.822Z,15.51
2023-10-06T18:44:11.483Z,15.54
2023-10-06T18:49:19.033Z,15.58
2023-10-06T18:54:24.803Z,15.58
2023-10-06T18:59:30.119Z,15.56
2023-10-06T19:04:35.799Z,15.58
2023-10-06T19:09:41.359Z,15.61
2023-10-06T19:14:47.387Z,15.65
2023-10-06T19:19:52.936Z,15.70
2023-10-06T19:24:58.477Z,15.75
2023-10-06T19:30:06.128Z,15.77
2023-10-06T19:35:14.215Z,15.80
2023-10-06T19:40:19.847Z,15.83
2023-10-06T19:45:25.209Z,15.87
2023-10-06T19:50:30.534Z,15.95
2023-10-06T19:55:35.892Z,16.01
2023-10-06T20:00:43.362Z,16.05
2023-10-06T20:05:49.967Z,16.08
2023-10-06T20:10:56.416Z,16.11
2023-10-06T20:16:09.475Z,16.11
2023-10-06T20:21:18.529Z,16.10
2023-10-06T20:26:24.128Z,16.12
2023-10-06T20:31:30.490Z,16.13
2023-10-06T20:36:36.242Z,16.12
2023-10-06T20:41:42.820Z,16.14
2023-10-06T20:46:49.241Z,16.17
2023-10-06T20:51:54.707Z,16.18
2023-10-06T20:57:00.075Z,16.18
2023-10-06T21:02:05.427Z,16.17
2023-10-06T21:07:11.051Z,16.16
2023-10-06T21:12:16.382Z,16.15
2023-10-06T21:17:21.936Z,16.14
2023-10-06T21:22:30.038Z,16.13
2023-10-06T21:27:37.308Z,16.10
2023-10-06T21:32:42.669Z,16.07
2023-10-06T21:37:48.029Z,16.06
2023-10-06T21:42:53.420Z,16.05
2023-10-06T21:47:58.736Z,16.01
2023-10-06T21:53:04.582Z,15.97
2023-10-06T21:58:10.300Z,15.92
2023-10-06T22:03:15.757Z,15.85
2023-10-06T22:08:21.242Z,15.82
2023-10-06T22:13:29.312Z,15.78
2023-10-06T22:18:35.998Z,15.74
2023-10-06T22:23:43.011Z,15.72
2023-10-06T22:28:48.534Z,15.72
2023-10-06T22:33:56.645Z,15.72
2023-10-06T22:39:01.938Z,15.72
2023-10-06T22:44:07.589Z,15.74
2023-10-06T22:49:13.748Z,15.76
2023-10-06T22:54:19.139Z,15.78
2023-10-06T22:59:24.491Z,15.80
2023-10-06T23:04:33.265Z,15.81
2023-10-06T23:09:39.155Z,15.83
2023-10-06T23:14:44.458Z,15.84
2023-10-06T23:19:56.500Z,15.86
2023-10-06T23:25:03.878Z,15.87
2023-10-06T23:30:11.411Z,15.89
2023-10-06T23:35:18.498Z,15.93
2023-10-06T23:40:24.056Z,15.95
2023-10-06T23:45:32.768Z,15.95
2023-10-06T23:50:42.534Z,15.96
2023-10-06T23:55:47.895Z,15.97
